100LL.CA
Aviation Fuel Pricing for Canadians
Please upgrade your browser - Tested with IE9, FireFox, Chrome, Safari

Fuel Airports Other Help
Prices Economy Info List METAR/TAF Kneeboard Help

Enter a list of
Airport Idents:
Sort Method: As Entered    By Ident   

CYVR
METAR CYVR 260400Z 31009KT 20SM BKN250 13/12 A3023 RMK CI5 SLP239
TAF CYVR 260238Z 2603/2706 30010KT P6SM SCT250 BECMG 2609/2611 30005KT FM261100 30005KT P6SM FEW020 PROB30 2611/2615 1/2SM FG FM261800 30010KT P6SM FEW220 RMK NXT FCST BY 260600Z
CYXX
METAR CYXX 260400Z 14002KT 15SM FEW240 13/11 A3024 RMK CI1 SLP241
TAF CYXX 252338Z 2600/2624 VRB03KT P6SM SKC FM261000 VRB03KT P6SM FEW010 PROB30 2612/2617 1/2SM FG VV002 FM261700 VRB03KT P6SM SKC RMK NXT FCST BY 260600Z
KBLI
METAR KBLI 260353Z 00000KT 10SM CLR 11/09 A3024 RMK AO2 SLP246 T01110089
TAF KBLI 252320Z 2600/2624 28007KT P6SM SCT250 FM260300 VRB03KT P6SM SKC FM261200 VRB03KT 3SM BR SCT002 FM261500 VRB05KT P6SM SKC FM261900 22006KT P6SM SKC


Please Send Updates!

Desktop Version ]  [ Mobile Version ]  [ Disclaimer ]